createdAt,value
2022-12-27T00:00:32.835Z,98487.88
2022-12-27T00:05:34.738Z,98478.03
2022-12-27T00:10:36.854Z,98477.69
2022-12-27T00:15:38.720Z,98480.50
2022-12-27T00:20:40.554Z,98498.59
2022-12-27T00:25:42.400Z,98496.28
2022-12-27T00:30:44.287Z,98504.03
2022-12-27T00:35:46.137Z,98514.34
2022-12-27T00:40:48.432Z,98528.25
2022-12-27T00:45:50.651Z,98539.38
2022-12-27T00:51:01.439Z,98551.38
2022-12-27T00:56:24.894Z,98571.50
2022-12-27T01:01:30.243Z,98575.00
2022-12-27T01:06:33.848Z,98582.63
2022-12-27T01:11:35.707Z,98580.09
2022-12-27T01:16:38.651Z,98604.50
2022-12-27T01:21:40.642Z,98613.69
2022-12-27T01:26:42.485Z,98620.50
2022-12-27T01:31:44.384Z,98635.69
2022-12-27T01:36:46.386Z,98649.16
2022-12-27T01:42:06.949Z,98648.22
2022-12-27T01:47:37.965Z,98648.84
2022-12-27T01:53:05.200Z,98643.47
2022-12-27T01:58:14.926Z,98639.97
2022-12-27T02:03:22.556Z,98636.97
2022-12-27T02:08:39.987Z,98622.38
2022-12-27T02:13:45.700Z,98640.91
2022-12-27T02:18:47.642Z,98660.81
2022-12-27T02:24:07.639Z,98666.94
2022-12-27T02:29:26.536Z,98680.22
2022-12-27T02:34:38.818Z,98681.50
2022-12-27T02:39:47.707Z,98693.34
2022-12-27T02:45:18.744Z,98704.38
2022-12-27T02:50:39.603Z,98702.25
2022-12-27T02:56:47.537Z,98713.94
2022-12-27T03:02:39.434Z,98733.88
2022-12-27T03:08:12.969Z,98749.16
2022-12-27T03:14:06.091Z,98740.34
2022-12-27T03:19:39.236Z,98749.16
2022-12-27T03:25:00.403Z,98764.94
2022-12-27T03:30:26.416Z,98778.00
2022-12-27T03:35:31.629Z,98789.47
2022-12-27T03:41:18.931Z,98792.75
2022-12-27T03:46:33.934Z,98799.75
2022-12-27T03:52:02.745Z,98811.53
2022-12-27T03:57:09.576Z,98810.03
2022-12-27T04:02:12.088Z,98812.03
2022-12-27T04:07:15.010Z,98819.19
2022-12-27T04:12:35.360Z,98818.81
2022-12-27T04:17:55.876Z,98827.75
2022-12-27T04:23:16.694Z,98834.72
2022-12-27T04:28:37.443Z,98830.56
2022-12-27T04:33:57.677Z,98832.16
2022-12-27T04:38:59.363Z,98828.75
2022-12-27T04:44:19.962Z,98838.50
2022-12-27T04:49:44.183Z,98829.38
2022-12-27T04:54:58.391Z,98826.16
2022-12-27T05:00:19.140Z,98839.38
2022-12-27T05:05:21.723Z,98845.75
2022-12-27T05:10:41.930Z,98844.06
2022-12-27T05:15:43.707Z,98843.06
2022-12-27T05:20:46.305Z,98849.44
2022-12-27T05:25:48.228Z,98858.00
2022-12-27T05:30:50.152Z,98833.13
2022-12-27T05:35:51.995Z,98847.94
2022-12-27T05:41:01.679Z,98847.84
2022-12-27T05:46:06.475Z,98847.84
2022-12-27T05:51:13.567Z,98853.22
2022-12-27T05:56:18.541Z,98860.63
2022-12-27T06:01:20.992Z,98855.25
2022-12-27T06:06:22.865Z,98863.78
2022-12-27T06:11:24.720Z,98865.28
2022-12-27T06:16:26.604Z,98864.78
2022-12-27T06:21:29.824Z,98877.44
2022-12-27T06:26:31.708Z,98882.69
2022-12-27T06:31:33.606Z,98893.03
2022-12-27T06:36:35.443Z,98886.16
2022-12-27T06:41:37.288Z,98899.28
2022-12-27T06:46:39.122Z,98903.44
2022-12-27T06:51:40.944Z,98904.56
2022-12-27T06:56:42.896Z,98921.22
2022-12-27T07:01:44.893Z,98927.50
2022-12-27T07:06:46.885Z,98936.41
2022-12-27T07:11:48.885Z,98936.72
2022-12-27T07:16:50.760Z,98953.81
2022-12-27T07:21:52.633Z,98954.03
2022-12-27T07:26:54.499Z,98965.00
2022-12-27T07:31:56.400Z,98950.69
2022-12-27T07:36:58.250Z,98968.38
2022-12-27T07:42:04.814Z,98968.31
2022-12-27T07:47:12.461Z,98970.41
2022-12-27T07:52:14.287Z,98989.13
2022-12-27T07:57:16.106Z,98997.69
2022-12-27T08:02:17.978Z,98977.81
2022-12-27T08:07:20.272Z,98989.16
2022-12-27T08:12:22.161Z,98992.56
2022-12-27T08:17:27.924Z,98987.41
2022-12-27T08:22:29.739Z,99004.50
2022-12-27T08:27:31.572Z,99003.06
2022-12-27T08:32:33.485Z,99017.31
2022-12-27T08:37:35.434Z,99009.97
2022-12-27T08:42:37.247Z,99003.97
2022-12-27T08:47:39.579Z,99015.22
2022-12-27T08:52:41.442Z,99028.78
2022-12-27T08:57:43.290Z,99028.59
2022-12-27T09:02:46.030Z,99027.50
2022-12-27T09:07:48.689Z,99059.06
2022-12-27T09:12:50.850Z,99063.53
2022-12-27T09:17:52.697Z,99067.53
2022-12-27T09:22:54.834Z,99064.94
2022-12-27T09:27:56.799Z,99052.69
2022-12-27T09:32:58.941Z,99042.41
2022-12-27T09:38:01.693Z,99047.56
2022-12-27T09:43:20.640Z,99058.25
2022-12-27T09:48:37.006Z,99056.66
2022-12-27T09:53:56.281Z,99036.59
2022-12-27T09:59:21.209Z,99030.44
2022-12-27T10:04:23.462Z,99025.13
2022-12-27T10:09:49.479Z,99010.34
2022-12-27T10:14:59.827Z,99009.72
2022-12-27T10:25:41.388Z,99008.69
2022-12-27T10:30:44.168Z,99015.56
2022-12-27T10:35:46.827Z,99013.00
2022-12-27T10:40:59.216Z,99012.56
2022-12-27T10:46:28.983Z,99014.03
2022-12-27T10:51:37.576Z,99008.50
2022-12-27T10:56:45.063Z,99002.16
2022-12-27T11:01:50.052Z,99007.09
2022-12-27T11:07:13.770Z,99011.56
2022-12-27T11:12:21.929Z,99012.72
2022-12-27T11:17:42.349Z,99013.22
2022-12-27T11:22:51.833Z,99026.56
2022-12-27T11:27:58.754Z,99045.31
2022-12-27T11:33:07.168Z,99033.78
2022-12-27T11:38:28.032Z,99029.13
2022-12-27T11:43:35.863Z,99037.34
2022-12-27T11:48:42.333Z,99037.00
2022-12-27T11:54:11.124Z,99045.25
2022-12-27T11:59:30.235Z,99043.22
2022-12-27T12:04:41.251Z,99039.28
2022-12-27T12:10:01.818Z,99027.84
2022-12-27T12:15:13.795Z,99043.78
2022-12-27T12:20:37.003Z,99024.06
2022-12-27T12:26:16.092Z,99019.63
2022-12-27T12:32:12.159Z,99020.53
2022-12-27T12:37:19.652Z,99031.28
2022-12-27T12:42:57.938Z,99041.44
2022-12-27T12:48:08.952Z,99024.47
2022-12-27T12:53:27.552Z,99040.16
2022-12-27T12:58:35.255Z,99049.47
2022-12-27T13:03:55.574Z,99041.25
2022-12-27T13:09:28.265Z,99043.63
2022-12-27T13:14:48.830Z,99050.94
2022-12-27T13:20:27.564Z,99042.69
2022-12-27T13:25:40.456Z,99044.28
2022-12-27T13:30:52.304Z,99044.28
2022-12-27T13:36:12.944Z,99044.41
2022-12-27T13:41:48.020Z,99063.94
2022-12-27T13:47:29.847Z,99069.00
2022-12-27T13:52:59.219Z,99081.59
2022-12-27T13:58:23.585Z,99061.53
2022-12-27T14:03:43.657Z,99064.72
2022-12-27T14:09:10.479Z,99057.44
2022-12-27T14:14:19.563Z,99049.78
2022-12-27T14:19:43.593Z,99060.72
2022-12-27T14:25:22.552Z,99067.38
2022-12-27T14:30:59.830Z,99074.63
2022-12-27T14:36:32.367Z,99076.44
2022-12-27T14:41:52.404Z,99072.31
2022-12-27T14:47:46.902Z,99079.56
2022-12-27T14:52:48.697Z,99095.13
2022-12-27T14:58:08.734Z,99103.97
2022-12-27T15:03:49.223Z,99106.78
2022-12-27T15:09:07.675Z,99108.38
2022-12-27T15:14:38.558Z,99099.78
2022-12-27T15:19:49.046Z,99102.78
2022-12-27T15:25:01.501Z,99107.97
2022-12-27T15:30:18.576Z,99092.44
2022-12-27T15:35:39.070Z,99097.94
2022-12-27T15:40:46.156Z,99086.81
2022-12-27T15:46:35.717Z,99085.31
2022-12-27T15:51:43.805Z,99085.25
2022-12-27T15:56:51.735Z,99088.97
2022-12-27T16:02:18.027Z,99093.69
2022-12-27T16:07:38.495Z,99105.16
2022-12-27T16:12:40.346Z,99109.84
2022-12-27T16:18:28.212Z,99107.97
2022-12-27T16:23:39.880Z,99103.09
2022-12-27T16:28:51.137Z,99091.31
2022-12-27T16:33:55.264Z,99098.81
2022-12-27T16:39:12.459Z,99100.00
2022-12-27T16:44:24.964Z,99109.59
2022-12-27T16:49:48.067Z,99115.44
2022-12-27T16:55:22.356Z,99117.16
2022-12-27T17:00:42.333Z,99117.66
2022-12-27T17:06:21.717Z,99102.59
2022-12-27T17:11:21.961Z,99100.63
2022-12-27T17:16:28.549Z,99097.81
2022-12-27T17:21:34.490Z,99097.31
2022-12-27T17:26:52.049Z,99095.63
2022-12-27T17:32:08.811Z,99094.44
2022-12-27T17:37:12.047Z,99100.81
2022-12-27T17:42:55.617Z,99093.22
2022-12-27T17:48:06.481Z,99098.44
2022-12-27T17:53:33.167Z,99098.13
2022-12-27T17:58:35.392Z,99093.06
2022-12-27T18:03:43.257Z,99093.22
2022-12-27T18:08:49.035Z,99093.22
2022-12-27T18:13:54.375Z,99092.25
2022-12-27T18:19:00.025Z,99079.91
2022-12-27T18:24:02.171Z,99090.06
2022-12-27T18:29:05.248Z,99093.44
2022-12-27T18:34:14.965Z,99087.69
2022-12-27T18:39:40.302Z,99097.22
2022-12-27T18:44:53.071Z,99107.59
2022-12-27T18:50:01.483Z,99105.59
2022-12-27T18:55:26.927Z,99100.22
2022-12-27T19:00:29.463Z,99095.34
2022-12-27T19:05:31.397Z,99094.84
2022-12-27T19:10:33.678Z,99083.50
2022-12-27T19:15:42.140Z,99075.31
2022-12-27T19:20:58.869Z,99086.88
2022-12-27T19:26:05.053Z,99082.28
2022-12-27T19:31:21.908Z,99081.09
2022-12-27T19:36:31.705Z,99086.69
2022-12-27T19:41:35.065Z,99088.38
2022-12-27T19:46:37.483Z,99079.50
2022-12-27T19:51:41.814Z,99079.50
2022-12-27T19:56:44.404Z,99083.28
2022-12-27T20:01:47.351Z,99077.09
2022-12-27T20:06:50.144Z,99088.47
2022-12-27T20:11:52.284Z,99090.66
2022-12-27T20:16:54.386Z,99082.28
2022-12-27T20:21:56.687Z,99075.91
2022-12-27T20:26:59.728Z,99071.13
2022-12-27T20:32:01.878Z,99077.09
2022-12-27T20:37:04.924Z,99081.38
2022-12-27T20:42:07.429Z,99076.31
2022-12-27T20:47:09.786Z,99065.75
2022-12-27T20:52:12.114Z,99075.69
2022-12-27T20:57:14.509Z,99078.91
2022-12-27T21:02:17.126Z,99055.00
2022-12-27T21:07:19.491Z,99048.78
2022-12-27T21:12:21.916Z,99047.50
2022-12-27T21:17:24.034Z,99042.13
2022-12-27T21:22:26.002Z,99027.09
2022-12-27T21:27:28.065Z,99032.25
2022-12-27T21:32:30.034Z,99031.66
2022-12-27T21:37:31.873Z,99024.59
2022-12-27T21:42:33.735Z,99020.50
2022-12-27T21:47:36.226Z,99014.81
2022-12-27T21:52:38.066Z,99011.53
2022-12-27T21:57:40.062Z,99005.84
2022-12-27T22:02:42.028Z,98997.78
2022-12-27T22:07:44.244Z,98994.78
2022-12-27T22:12:46.087Z,98988.63
2022-12-27T22:17:48.020Z,98988.63
2022-12-27T22:22:49.955Z,98982.41
2022-12-27T22:27:51.808Z,98990.50
2022-12-27T22:32:54.435Z,98974.84
2022-12-27T22:37:56.437Z,98972.66
2022-12-27T22:42:58.934Z,98977.44
2022-12-27T22:48:00.819Z,98973.66
2022-12-27T22:53:03.872Z,98973.81
2022-12-27T22:58:05.854Z,98970.25
2022-12-27T23:03:07.830Z,98967.53
2022-12-27T23:08:09.728Z,98960.16
2022-12-27T23:13:11.663Z,98946.09
2022-12-27T23:18:13.620Z,98939.00
2022-12-27T23:23:15.580Z,98921.72
2022-12-27T23:28:17.730Z,98929.53
2022-12-27T23:33:19.688Z,98909.56
2022-12-27T23:38:21.640Z,98896.59
2022-12-27T23:43:55.246Z,98894.41
2022-12-27T23:48:46.889Z,98893.25
2022-12-27T23:53:48.863Z,98886.88
2022-12-27T23:58:53.741Z,98891.25
